sensor_id;sensor_type;location;lat;lon;timestamp;P1;durP1;ratioP1;P2;durP2;ratioP2
16579;SDS011;8402;51.466;6.806;2023-11-22T00:00:00;16.53;;;9.37;;
16579;SDS011;8402;51.466;6.806;2023-11-22T00:02:30;20.60;;;9.63;;
16579;SDS011;8402;51.466;6.806;2023-11-22T00:05:01;17.17;;;8.73;;
16579;SDS011;8402;51.466;6.806;2023-11-22T00:07:32;17.23;;;8.73;;
16579;SDS011;8402;51.466;6.806;2023-11-22T00:10:06;16.63;;;8.57;;
16579;SDS011;8402;51.466;6.806;2023-11-22T00:12:36;19.40;;;8.63;;
16579;SDS011;8402;51.466;6.806;2023-11-22T00:15:09;19.47;;;8.50;;
16579;SDS011;8402;51.466;6.806;2023-11-22T00:17:44;17.63;;;8.57;;
16579;SDS011;8402;51.466;6.806;2023-11-22T00:20:15;18.83;;;9.23;;
16579;SDS011;8402;51.466;6.806;2023-11-22T00:22:45;16.53;;;8.50;;
16579;SDS011;8402;51.466;6.806;2023-11-22T00:25:18;17.60;;;8.20;;
16579;SDS011;8402;51.466;6.806;2023-11-22T00:27:48;16.27;;;8.70;;
16579;SDS011;8402;51.466;6.806;2023-11-22T00:30:17;19.37;;;8.90;;
16579;SDS011;8402;51.466;6.806;2023-11-22T00:32:47;18.67;;;8.50;;
16579;SDS011;8402;51.466;6.806;2023-11-22T00:35:18;22.73;;;8.80;;
16579;SDS011;8402;51.466;6.806;2023-11-22T00:37:48;17.77;;;8.37;;
16579;SDS011;8402;51.466;6.806;2023-11-22T00:40:20;16.47;;;8.27;;
16579;SDS011;8402;51.466;6.806;2023-11-22T00:42:51;19.80;;;8.60;;
16579;SDS011;8402;51.466;6.806;2023-11-22T00:45:21;14.17;;;8.27;;
16579;SDS011;8402;51.466;6.806;2023-11-22T00:47:51;13.87;;;7.30;;
16579;SDS011;8402;51.466;6.806;2023-11-22T00:50:21;16.60;;;8.27;;
16579;SDS011;8402;51.466;6.806;2023-11-22T00:52:51;16.10;;;7.83;;
16579;SDS011;8402;51.466;6.806;2023-11-22T00:55:24;16.90;;;8.03;;
16579;SDS011;8402;51.466;6.806;2023-11-22T00:57:54;14.63;;;7.63;;
16579;SDS011;8402;51.466;6.806;2023-11-22T01:00:30;13.70;;;7.40;;
16579;SDS011;8402;51.466;6.806;2023-11-22T01:03:00;15.57;;;7.53;;
16579;SDS011;8402;51.466;6.806;2023-11-22T01:05:31;12.03;;;7.37;;
16579;SDS011;8402;51.466;6.806;2023-11-22T01:07:59;20.07;;;7.90;;
16579;SDS011;8402;51.466;6.806;2023-11-22T01:10:32;16.50;;;8.60;;
16579;SDS011;8402;51.466;6.806;2023-11-22T01:13:02;15.87;;;8.23;;
16579;SDS011;8402;51.466;6.806;2023-11-22T01:15:32;14.23;;;7.27;;
16579;SDS011;8402;51.466;6.806;2023-11-22T01:18:02;16.20;;;7.83;;
16579;SDS011;8402;51.466;6.806;2023-11-22T01:20:32;15.27;;;7.43;;
16579;SDS011;8402;51.466;6.806;2023-11-22T01:23:02;12.30;;;6.63;;
16579;SDS011;8402;51.466;6.806;2023-11-22T01:25:35;14.10;;;7.63;;
16579;SDS011;8402;51.466;6.806;2023-11-22T01:28:04;13.17;;;7.20;;
16579;SDS011;8402;51.466;6.806;2023-11-22T01:30:37;15.57;;;7.77;;
16579;SDS011;8402;51.466;6.806;2023-11-22T01:33:08;12.73;;;7.23;;
16579;SDS011;8402;51.466;6.806;2023-11-22T01:35:38;16.27;;;7.10;;
16579;SDS011;8402;51.466;6.806;2023-11-22T01:38:08;13.60;;;7.53;;
16579;SDS011;8402;51.466;6.806;2023-11-22T01:40:45;17.30;;;7.63;;
16579;SDS011;8402;51.466;6.806;2023-11-22T01:43:17;13.93;;;7.37;;
16579;SDS011;8402;51.466;6.806;2023-11-22T01:45:47;17.03;;;7.53;;
16579;SDS011;8402;51.466;6.806;2023-11-22T01:48:17;13.77;;;7.40;;
16579;SDS011;8402;51.466;6.806;2023-11-22T01:50:48;12.63;;;6.67;;
16579;SDS011;8402;51.466;6.806;2023-11-22T01:53:18;14.43;;;7.20;;
16579;SDS011;8402;51.466;6.806;2023-11-22T01:55:51;12.23;;;6.73;;
16579;SDS011;8402;51.466;6.806;2023-11-22T01:58:21;17.50;;;7.73;;
16579;SDS011;8402;51.466;6.806;2023-11-22T02:00:51;13.77;;;7.30;;
16579;SDS011;8402;51.466;6.806;2023-11-22T02:03:21;12.57;;;7.10;;
16579;SDS011;8402;51.466;6.806;2023-11-22T02:05:51;13.33;;;6.93;;
16579;SDS011;8402;51.466;6.806;2023-11-22T02:08:21;13.93;;;6.93;;
16579;SDS011;8402;51.466;6.806;2023-11-22T02:11:01;11.53;;;6.63;;
16579;SDS011;8402;51.466;6.806;2023-11-22T02:13:31;13.00;;;6.70;;
16579;SDS011;8402;51.466;6.806;2023-11-22T02:16:02;15.00;;;6.77;;
16579;SDS011;8402;51.466;6.806;2023-11-22T02:18:32;18.40;;;6.83;;
16579;SDS011;8402;51.466;6.806;2023-11-22T02:21:04;12.97;;;6.53;;
16579;SDS011;8402;51.466;6.806;2023-11-22T02:23:38;17.20;;;7.40;;
16579;SDS011;8402;51.466;6.806;2023-11-22T02:26:08;12.70;;;6.93;;
16579;SDS011;8402;51.466;6.806;2023-11-22T02:28:39;12.80;;;6.53;;
16579;SDS011;8402;51.466;6.806;2023-11-22T02:31:09;12.53;;;6.40;;
16579;SDS011;8402;51.466;6.806;2023-11-22T02:33:39;11.53;;;6.20;;
16579;SDS011;8402;51.466;6.806;2023-11-22T02:36:10;14.53;;;6.77;;
16579;SDS011;8402;51.466;6.806;2023-11-22T02:38:44;13.30;;;6.87;;
16579;SDS011;8402;51.466;6.806;2023-11-22T02:41:14;11.60;;;6.07;;
16579;SDS011;8402;51.466;6.806;2023-11-22T02:43:44;13.10;;;6.03;;
16579;SDS011;8402;51.466;6.806;2023-11-22T02:46:13;41.77;;;8.10;;
16579;SDS011;8402;51.466;6.806;2023-11-22T02:48:44;11.53;;;6.47;;
16579;SDS011;8402;51.466;6.806;2023-11-22T02:51:14;9.90;;;6.00;;
16579;SDS011;8402;51.466;6.806;2023-11-22T02:53:47;12.07;;;6.10;;
16579;SDS011;8402;51.466;6.806;2023-11-22T02:56:17;11.23;;;5.80;;
16579;SDS011;8402;51.466;6.806;2023-11-22T02:58:47;12.87;;;6.80;;
16579;SDS011;8402;51.466;6.806;2023-11-22T03:01:17;12.10;;;6.00;;
16579;SDS011;8402;51.466;6.806;2023-11-22T03:03:47;11.50;;;6.77;;
16579;SDS011;8402;51.466;6.806;2023-11-22T03:06:18;12.93;;;6.57;;
16579;SDS011;8402;51.466;6.806;2023-11-22T03:08:50;17.67;;;5.60;;
16579;SDS011;8402;51.466;6.806;2023-11-22T03:11:20;14.17;;;7.27;;
16579;SDS011;8402;51.466;6.806;2023-11-22T03:13:50;13.97;;;6.63;;
16579;SDS011;8402;51.466;6.806;2023-11-22T03:16:20;12.97;;;6.17;;
16579;SDS011;8402;51.466;6.806;2023-11-22T03:18:51;12.37;;;6.13;;
16579;SDS011;8402;51.466;6.806;2023-11-22T03:21:22;13.47;;;6.53;;
16579;SDS011;8402;51.466;6.806;2023-11-22T03:23:57;12.80;;;6.80;;
16579;SDS011;8402;51.466;6.806;2023-11-22T03:26:26;14.20;;;6.87;;
16579;SDS011;8402;51.466;6.806;2023-11-22T03:28:56;11.80;;;6.80;;
16579;SDS011;8402;51.466;6.806;2023-11-22T03:31:27;11.90;;;6.40;;
16579;SDS011;8402;51.466;6.806;2023-11-22T03:33:57;13.70;;;6.40;;
16579;SDS011;8402;51.466;6.806;2023-11-22T03:36:27;27.47;;;6.77;;
16579;SDS011;8402;51.466;6.806;2023-11-22T03:39:00;13.20;;;6.53;;
16579;SDS011;8402;51.466;6.806;2023-11-22T03:41:30;13.87;;;6.17;;
16579;SDS011;8402;51.466;6.806;2023-11-22T03:44:00;12.30;;;6.43;;
16579;SDS011;8402;51.466;6.806;2023-11-22T03:46:31;12.57;;;6.50;;
16579;SDS011;8402;51.466;6.806;2023-11-22T03:49:01;15.40;;;7.00;;
16579;SDS011;8402;51.466;6.806;2023-11-22T03:51:31;16.33;;;6.70;;
16579;SDS011;8402;51.466;6.806;2023-11-22T03:54:03;12.67;;;6.57;;
16579;SDS011;8402;51.466;6.806;2023-11-22T03:56:36;14.80;;;7.20;;
16579;SDS011;8402;51.466;6.806;2023-11-22T03:59:06;15.87;;;6.77;;
16579;SDS011;8402;51.466;6.806;2023-11-22T04:01:36;16.10;;;6.80;;
16579;SDS011;8402;51.466;6.806;2023-11-22T04:04:06;15.97;;;7.33;;
16579;SDS011;8402;51.466;6.806;2023-11-22T04:06:37;14.90;;;6.87;;
16579;SDS011;8402;51.466;6.806;2023-11-22T04:09:09;13.67;;;7.07;;
16579;SDS011;8402;51.466;6.806;2023-11-22T04:11:40;16.43;;;7.23;;
16579;SDS011;8402;51.466;6.806;2023-11-22T04:14:10;13.57;;;7.03;;
16579;SDS011;8402;51.466;6.806;2023-11-22T04:16:41;10.87;;;5.87;;
16579;SDS011;8402;51.466;6.806;2023-11-22T04:19:11;13.87;;;7.10;;
16579;SDS011;8402;51.466;6.806;2023-11-22T04:21:41;11.27;;;6.40;;
16579;SDS011;8402;51.466;6.806;2023-11-22T04:24:14;11.97;;;6.50;;
16579;SDS011;8402;51.466;6.806;2023-11-22T04:26:44;12.53;;;6.40;;
16579;SDS011;8402;51.466;6.806;2023-11-22T04:29:15;13.60;;;6.80;;
16579;SDS011;8402;51.466;6.806;2023-11-22T04:31:45;14.77;;;6.73;;
16579;SDS011;8402;51.466;6.806;2023-11-22T04:34:15;17.27;;;7.53;;
16579;SDS011;8402;51.466;6.806;2023-11-22T04:36:46;17.13;;;8.30;;
16579;SDS011;8402;51.466;6.806;2023-11-22T04:39:19;18.17;;;8.70;;
16579;SDS011;8402;51.466;6.806;2023-11-22T04:41:49;16.27;;;8.43;;
16579;SDS011;8402;51.466;6.806;2023-11-22T04:44:19;21.53;;;9.27;;
16579;SDS011;8402;51.466;6.806;2023-11-22T04:46:49;18.47;;;8.37;;
16579;SDS011;8402;51.466;6.806;2023-11-22T04:49:19;17.90;;;8.03;;
16579;SDS011;8402;51.466;6.806;2023-11-22T04:51:49;207.40;;;16.87;;
16579;SDS011;8402;51.466;6.806;2023-11-22T04:54:21;18.77;;;9.50;;
16579;SDS011;8402;51.466;6.806;2023-11-22T04:56:51;20.50;;;9.60;;
16579;SDS011;8402;51.466;6.806;2023-11-22T04:59:21;19.67;;;8.63;;
16579;SDS011;8402;51.466;6.806;2023-11-22T05:01:51;21.90;;;8.50;;
16579;SDS011;8402;51.466;6.806;2023-11-22T05:04:22;25.40;;;8.90;;
16579;SDS011;8402;51.466;6.806;2023-11-22T05:06:53;15.87;;;8.03;;
16579;SDS011;8402;51.466;6.806;2023-11-22T05:09:26;15.00;;;8.03;;
16579;SDS011;8402;51.466;6.806;2023-11-22T05:11:56;22.00;;;9.33;;
16579;SDS011;8402;51.466;6.806;2023-11-22T05:14:26;20.93;;;9.57;;
16579;SDS011;8402;51.466;6.806;2023-11-22T05:16:56;19.80;;;8.50;;
16579;SDS011;8402;51.466;6.806;2023-11-22T05:19:26;16.30;;;7.80;;
16579;SDS011;8402;51.466;6.806;2023-11-22T05:21:55;16.13;;;7.67;;
16579;SDS011;8402;51.466;6.806;2023-11-22T05:24:28;18.67;;;8.20;;
16579;SDS011;8402;51.466;6.806;2023-11-22T05:26:59;20.50;;;7.60;;
16579;SDS011;8402;51.466;6.806;2023-11-22T05:29:29;15.13;;;7.47;;
16579;SDS011;8402;51.466;6.806;2023-11-22T05:32:09;16.07;;;7.50;;
16579;SDS011;8402;51.466;6.806;2023-11-22T05:34:39;15.17;;;8.00;;
16579;SDS011;8402;51.466;6.806;2023-11-22T05:37:09;17.87;;;7.57;;
16579;SDS011;8402;51.466;6.806;2023-11-22T05:39:42;16.63;;;7.57;;
16579;SDS011;8402;51.466;6.806;2023-11-22T05:42:12;16.30;;;7.80;;
16579;SDS011;8402;51.466;6.806;2023-11-22T05:44:42;13.23;;;6.97;;
16579;SDS011;8402;51.466;6.806;2023-11-22T05:47:12;16.57;;;8.00;;
16579;SDS011;8402;51.466;6.806;2023-11-22T05:49:45;21.43;;;8.77;;
16579;SDS011;8402;51.466;6.806;2023-11-22T05:52:15;19.07;;;8.53;;
16579;SDS011;8402;51.466;6.806;2023-11-22T05:54:48;22.83;;;9.77;;
16579;SDS011;8402;51.466;6.806;2023-11-22T05:57:19;17.07;;;8.07;;
16579;SDS011;8402;51.466;6.806;2023-11-22T05:59:49;17.47;;;8.93;;
16579;SDS011;8402;51.466;6.806;2023-11-22T06:02:19;19.37;;;8.80;;
16579;SDS011;8402;51.466;6.806;2023-11-22T06:04:49;16.50;;;7.93;;
16579;SDS011;8402;51.466;6.806;2023-11-22T06:07:21;17.23;;;8.67;;
16579;SDS011;8402;51.466;6.806;2023-11-22T06:09:54;18.90;;;7.90;;
16579;SDS011;8402;51.466;6.806;2023-11-22T06:12:23;15.13;;;7.43;;
16579;SDS011;8402;51.466;6.806;2023-11-22T06:14:53;13.57;;;7.10;;
16579;SDS011;8402;51.466;6.806;2023-11-22T06:17:23;14.87;;;7.20;;
16579;SDS011;8402;51.466;6.806;2023-11-22T06:19:53;14.73;;;6.53;;
16579;SDS011;8402;51.466;6.806;2023-11-22T06:22:23;13.37;;;6.27;;
16579;SDS011;8402;51.466;6.806;2023-11-22T06:24:56;14.60;;;6.53;;
16579;SDS011;8402;51.466;6.806;2023-11-22T06:27:26;17.93;;;7.47;;
16579;SDS011;8402;51.466;6.806;2023-11-22T06:29:58;21.27;;;9.37;;
16579;SDS011;8402;51.466;6.806;2023-11-22T06:32:28;17.20;;;7.33;;
16579;SDS011;8402;51.466;6.806;2023-11-22T06:35:02;16.70;;;7.40;;
16579;SDS011;8402;51.466;6.806;2023-11-22T06:37:35;14.37;;;6.67;;
16579;SDS011;8402;51.466;6.806;2023-11-22T06:40:08;12.00;;;5.80;;
16579;SDS011;8402;51.466;6.806;2023-11-22T06:42:43;11.73;;;6.20;;
16579;SDS011;8402;51.466;6.806;2023-11-22T06:45:13;12.37;;;6.37;;
16579;SDS011;8402;51.466;6.806;2023-11-22T06:47:43;11.83;;;6.27;;
16579;SDS011;8402;51.466;6.806;2023-11-22T06:50:13;14.87;;;6.67;;
16579;SDS011;8402;51.466;6.806;2023-11-22T06:52:43;14.40;;;6.40;;
16579;SDS011;8402;51.466;6.806;2023-11-22T06:55:18;13.40;;;6.63;;
16579;SDS011;8402;51.466;6.806;2023-11-22T06:57:48;16.90;;;7.73;;
16579;SDS011;8402;51.466;6.806;2023-11-22T07:00:20;17.30;;;8.23;;
16579;SDS011;8402;51.466;6.806;2023-11-22T07:02:50;20.87;;;9.20;;
16579;SDS011;8402;51.466;6.806;2023-11-22T07:05:20;14.43;;;7.60;;
16579;SDS011;8402;51.466;6.806;2023-11-22T07:07:50;12.70;;;6.00;;
16579;SDS011;8402;51.466;6.806;2023-11-22T07:10:24;35.13;;;14.30;;
16579;SDS011;8402;51.466;6.806;2023-11-22T07:12:55;19.33;;;9.10;;
16579;SDS011;8402;51.466;6.806;2023-11-22T07:15:25;15.70;;;7.53;;
16579;SDS011;8402;51.466;6.806;2023-11-22T07:17:55;13.10;;;6.37;;
16579;SDS011;8402;51.466;6.806;2023-11-22T07:20:25;13.23;;;6.20;;
16579;SDS011;8402;51.466;6.806;2023-11-22T07:22:55;14.07;;;6.70;;
16579;SDS011;8402;51.466;6.806;2023-11-22T07:25:29;18.77;;;6.47;;
16579;SDS011;8402;51.466;6.806;2023-11-22T07:28:00;11.93;;;5.83;;
16579;SDS011;8402;51.466;6.806;2023-11-22T07:30:30;10.17;;;5.50;;
16579;SDS011;8402;51.466;6.806;2023-11-22T07:33:00;12.77;;;6.27;;
16579;SDS011;8402;51.466;6.806;2023-11-22T07:35:32;15.90;;;6.23;;
16579;SDS011;8402;51.466;6.806;2023-11-22T07:38:02;35.77;;;7.03;;
16579;SDS011;8402;51.466;6.806;2023-11-22T07:40:37;14.90;;;5.63;;
16579;SDS011;8402;51.466;6.806;2023-11-22T07:43:08;16.73;;;6.83;;
16579;SDS011;8402;51.466;6.806;2023-11-22T07:45:38;14.37;;;5.93;;
16579;SDS011;8402;51.466;6.806;2023-11-22T07:48:10;14.80;;;6.20;;
16579;SDS011;8402;51.466;6.806;2023-11-22T07:50:40;11.20;;;5.67;;
16579;SDS011;8402;51.466;6.806;2023-11-22T07:53:13;17.43;;;7.13;;
16579;SDS011;8402;51.466;6.806;2023-11-22T07:55:47;17.03;;;6.87;;
16579;SDS011;8402;51.466;6.806;2023-11-22T07:58:18;18.20;;;6.60;;
16579;SDS011;8402;51.466;6.806;2023-11-22T08:00:48;17.20;;;5.73;;
16579;SDS011;8402;51.466;6.806;2023-11-22T08:03:18;12.17;;;6.00;;
16579;SDS011;8402;51.466;6.806;2023-11-22T08:05:52;11.67;;;5.50;;
16579;SDS011;8402;51.466;6.806;2023-11-22T08:08:23;15.00;;;6.40;;
16579;SDS011;8402;51.466;6.806;2023-11-22T08:10:56;11.83;;;5.67;;
16579;SDS011;8402;51.466;6.806;2023-11-22T08:13:28;11.37;;;6.10;;
16579;SDS011;8402;51.466;6.806;2023-11-22T08:15:58;13.77;;;6.37;;
16579;SDS011;8402;51.466;6.806;2023-11-22T08:18:28;17.90;;;6.53;;
16579;SDS011;8402;51.466;6.806;2023-11-22T08:20:58;15.70;;;6.87;;
16579;SDS011;8402;51.466;6.806;2023-11-22T08:23:28;13.30;;;6.40;;
16579;SDS011;8402;51.466;6.806;2023-11-22T08:26:01;12.80;;;6.53;;
16579;SDS011;8402;51.466;6.806;2023-11-22T08:28:32;15.70;;;6.90;;
16579;SDS011;8402;51.466;6.806;2023-11-22T08:31:02;20.33;;;6.93;;
16579;SDS011;8402;51.466;6.806;2023-11-22T08:33:36;13.73;;;6.47;;
16579;SDS011;8402;51.466;6.806;2023-11-22T08:36:07;12.17;;;6.07;;
16579;SDS011;8402;51.466;6.806;2023-11-22T08:38:38;12.33;;;5.87;;
16579;SDS011;8402;51.466;6.806;2023-11-22T08:41:12;13.50;;;6.07;;
16579;SDS011;8402;51.466;6.806;2023-11-22T08:43:43;13.67;;;6.00;;
16579;SDS011;8402;51.466;6.806;2023-11-22T08:46:14;13.60;;;6.07;;
16579;SDS011;8402;51.466;6.806;2023-11-22T08:48:44;13.40;;;6.67;;
16579;SDS011;8402;51.466;6.806;2023-11-22T08:51:14;17.00;;;6.53;;
16579;SDS011;8402;51.466;6.806;2023-11-22T08:53:45;11.50;;;5.80;;
16579;SDS011;8402;51.466;6.806;2023-11-22T08:56:18;12.93;;;5.73;;
16579;SDS011;8402;51.466;6.806;2023-11-22T08:58:48;13.50;;;6.23;;
16579;SDS011;8402;51.466;6.806;2023-11-22T09:01:19;15.17;;;6.00;;
16579;SDS011;8402;51.466;6.806;2023-11-22T09:03:49;15.03;;;6.13;;
16579;SDS011;8402;51.466;6.806;2023-11-22T09:06:19;14.80;;;6.23;;
16579;SDS011;8402;51.466;6.806;2023-11-22T09:08:50;17.83;;;5.47;;
16579;SDS011;8402;51.466;6.806;2023-11-22T09:11:25;13.97;;;5.87;;
16579;SDS011;8402;51.466;6.806;2023-11-22T09:13:55;14.00;;;6.10;;
16579;SDS011;8402;51.466;6.806;2023-11-22T09:16:27;14.47;;;6.00;;
16579;SDS011;8402;51.466;6.806;2023-11-22T09:18:58;12.33;;;6.23;;
16579;SDS011;8402;51.466;6.806;2023-11-22T09:21:30;19.07;;;6.47;;
16579;SDS011;8402;51.466;6.806;2023-11-22T09:24:00;13.43;;;6.03;;
16579;SDS011;8402;51.466;6.806;2023-11-22T09:26:35;13.57;;;6.77;;
16579;SDS011;8402;51.466;6.806;2023-11-22T09:29:05;12.20;;;5.53;;
16579;SDS011;8402;51.466;6.806;2023-11-22T09:31:35;11.37;;;5.50;;
16579;SDS011;8402;51.466;6.806;2023-11-22T09:34:05;10.80;;;5.60;;
16579;SDS011;8402;51.466;6.806;2023-11-22T09:36:35;11.03;;;5.53;;
16579;SDS011;8402;51.466;6.806;2023-11-22T09:39:08;10.97;;;5.37;;
16579;SDS011;8402;51.466;6.806;2023-11-22T09:41:40;10.63;;;5.50;;
16579;SDS011;8402;51.466;6.806;2023-11-22T09:44:12;9.60;;;5.07;;
16579;SDS011;8402;51.466;6.806;2023-11-22T09:46:43;10.37;;;5.30;;
16579;SDS011;8402;51.466;6.806;2023-11-22T09:49:14;12.73;;;6.13;;
16579;SDS011;8402;51.466;6.806;2023-11-22T09:51:51;9.43;;;4.90;;
16579;SDS011;8402;51.466;6.806;2023-11-22T09:54:25;10.77;;;5.00;;
16579;SDS011;8402;51.466;6.806;2023-11-22T09:57:02;10.60;;;5.13;;
16579;SDS011;8402;51.466;6.806;2023-11-22T09:59:35;10.50;;;5.10;;
16579;SDS011;8402;51.466;6.806;2023-11-22T10:02:09;8.53;;;4.70;;
16579;SDS011;8402;51.466;6.806;2023-11-22T10:04:39;11.53;;;5.27;;
16579;SDS011;8402;51.466;6.806;2023-11-22T10:07:10;10.13;;;5.07;;
16579;SDS011;8402;51.466;6.806;2023-11-22T10:09:40;11.83;;;4.83;;
16579;SDS011;8402;51.466;6.806;2023-11-22T10:12:14;8.93;;;4.70;;
16579;SDS011;8402;51.466;6.806;2023-11-22T10:14:48;12.03;;;5.27;;
16579;SDS011;8402;51.466;6.806;2023-11-22T10:17:19;11.93;;;5.40;;
16579;SDS011;8402;51.466;6.806;2023-11-22T10:19:51;10.87;;;5.17;;
16579;SDS011;8402;51.466;6.806;2023-11-22T10:22:24;11.70;;;4.70;;
16579;SDS011;8402;51.466;6.806;2023-11-22T10:24:55;9.67;;;4.50;;
16579;SDS011;8402;51.466;6.806;2023-11-22T10:27:30;10.80;;;5.30;;
16579;SDS011;8402;51.466;6.806;2023-11-22T10:30:00;10.57;;;4.80;;
16579;SDS011;8402;51.466;6.806;2023-11-22T10:32:31;8.83;;;4.70;;
16579;SDS011;8402;51.466;6.806;2023-11-22T10:35:01;8.47;;;5.10;;
16579;SDS011;8402;51.466;6.806;2023-11-22T10:37:32;9.90;;;4.87;;
16579;SDS011;8402;51.466;6.806;2023-11-22T10:40:02;10.30;;;5.13;;
16579;SDS011;8402;51.466;6.806;2023-11-22T10:42:35;8.50;;;4.87;;
16579;SDS011;8402;51.466;6.806;2023-11-22T10:45:08;11.57;;;5.03;;
16579;SDS011;8402;51.466;6.806;2023-11-22T10:47:39;12.03;;;5.10;;
16579;SDS011;8402;51.466;6.806;2023-11-22T10:50:10;12.17;;;5.20;;
16579;SDS011;8402;51.466;6.806;2023-11-22T10:52:41;10.27;;;5.10;;
16579;SDS011;8402;51.466;6.806;2023-11-22T10:55:13;11.07;;;5.07;;
16579;SDS011;8402;51.466;6.806;2023-11-22T10:57:49;11.40;;;5.50;;
16579;SDS011;8402;51.466;6.806;2023-11-22T11:00:22;10.73;;;5.57;;
16579;SDS011;8402;51.466;6.806;2023-11-22T11:02:57;10.07;;;5.30;;
16579;SDS011;8402;51.466;6.806;2023-11-22T11:05:31;9.20;;;5.00;;
16579;SDS011;8402;51.466;6.806;2023-11-22T11:08:05;10.60;;;4.97;;
16579;SDS011;8402;51.466;6.806;2023-11-22T11:10:38;10.33;;;4.93;;
16579;SDS011;8402;51.466;6.806;2023-11-22T11:13:12;10.07;;;4.80;;
16579;SDS011;8402;51.466;6.806;2023-11-22T11:15:42;10.90;;;4.70;;
16579;SDS011;8402;51.466;6.806;2023-11-22T11:18:14;10.90;;;5.10;;
16579;SDS011;8402;51.466;6.806;2023-11-22T11:20:47;11.50;;;5.10;;
16579;SDS011;8402;51.466;6.806;2023-11-22T11:23:19;11.80;;;4.47;;
16579;SDS011;8402;51.466;6.806;2023-11-22T11:25:50;9.43;;;4.70;;
16579;SDS011;8402;51.466;6.806;2023-11-22T11:28:25;9.03;;;4.83;;
16579;SDS011;8402;51.466;6.806;2023-11-22T11:30:56;10.87;;;5.30;;
16579;SDS011;8402;51.466;6.806;2023-11-22T11:33:27;8.57;;;4.60;;
16579;SDS011;8402;51.466;6.806;2023-11-22T11:36:02;8.00;;;4.27;;
16579;SDS011;8402;51.466;6.806;2023-11-22T11:38:34;8.57;;;4.57;;
16579;SDS011;8402;51.466;6.806;2023-11-22T11:41:08;9.20;;;4.90;;
16579;SDS011;8402;51.466;6.806;2023-11-22T11:43:43;10.00;;;4.73;;
16579;SDS011;8402;51.466;6.806;2023-11-22T11:46:15;8.80;;;4.37;;
16579;SDS011;8402;51.466;6.806;2023-11-22T11:48:47;9.80;;;4.70;;
16579;SDS011;8402;51.466;6.806;2023-11-22T11:51:18;6.63;;;4.07;;
16579;SDS011;8402;51.466;6.806;2023-11-22T11:53:49;9.90;;;4.80;;
16579;SDS011;8402;51.466;6.806;2023-11-22T11:56:20;9.77;;;5.10;;
16579;SDS011;8402;51.466;6.806;2023-11-22T11:58:56;9.93;;;4.37;;
16579;SDS011;8402;51.466;6.806;2023-11-22T12:01:27;10.67;;;5.10;;
16579;SDS011;8402;51.466;6.806;2023-11-22T12:04:00;8.67;;;4.53;;
16579;SDS011;8402;51.466;6.806;2023-11-22T12:06:30;10.07;;;4.57;;
16579;SDS011;8402;51.466;6.806;2023-11-22T12:09:03;11.33;;;3.90;;
16579;SDS011;8402;51.466;6.806;2023-11-22T12:11:33;9.90;;;4.67;;
16579;SDS011;8402;51.466;6.806;2023-11-22T12:14:06;12.53;;;3.87;;
16579;SDS011;8402;51.466;6.806;2023-11-22T12:16:37;10.30;;;3.93;;
16579;SDS011;8402;51.466;6.806;2023-11-22T12:19:07;7.37;;;3.90;;
16579;SDS011;8402;51.466;6.806;2023-11-22T12:21:38;7.50;;;3.80;;
16579;SDS011;8402;51.466;6.806;2023-11-22T12:24:08;6.37;;;3.80;;
16579;SDS011;8402;51.466;6.806;2023-11-22T12:26:39;6.70;;;3.47;;
16579;SDS011;8402;51.466;6.806;2023-11-22T12:29:12;8.37;;;4.00;;
16579;SDS011;8402;51.466;6.806;2023-11-22T12:31:45;8.83;;;4.17;;
16579;SDS011;8402;51.466;6.806;2023-11-22T12:34:17;13.37;;;4.80;;
16579;SDS011;8402;51.466;6.806;2023-11-22T12:36:48;7.23;;;3.83;;
16579;SDS011;8402;51.466;6.806;2023-11-22T12:39:19;6.47;;;3.87;;
16579;SDS011;8402;51.466;6.806;2023-11-22T12:41:50;8.10;;;4.20;;
16579;SDS011;8402;51.466;6.806;2023-11-22T12:44:49;8.27;;;3.40;;
16579;SDS011;8402;51.466;6.806;2023-11-22T12:47:32;6.33;;;3.10;;
16579;SDS011;8402;51.466;6.806;2023-11-22T12:50:05;7.70;;;3.63;;
16579;SDS011;8402;51.466;6.806;2023-11-22T12:52:36;8.00;;;3.00;;
16579;SDS011;8402;51.466;6.806;2023-11-22T12:55:07;4.57;;;2.90;;
16579;SDS011;8402;51.466;6.806;2023-11-22T12:57:37;6.63;;;3.20;;
16579;SDS011;8402;51.466;6.806;2023-11-22T13:00:14;6.43;;;2.40;;
16579;SDS011;8402;51.466;6.806;2023-11-22T13:02:44;4.53;;;2.60;;
16579;SDS011;8402;51.466;6.806;2023-11-22T13:05:28;5.57;;;2.70;;
16579;SDS011;8402;51.466;6.806;2023-11-22T13:07:58;4.43;;;2.30;;
16579;SDS011;8402;51.466;6.806;2023-11-22T13:10:28;3.47;;;1.80;;
16579;SDS011;8402;51.466;6.806;2023-11-22T13:12:59;5.07;;;2.23;;
16579;SDS011;8402;51.466;6.806;2023-11-22T13:15:31;7.00;;;1.97;;
16579;SDS011;8402;51.466;6.806;2023-11-22T13:18:01;3.10;;;1.73;;
16579;SDS011;8402;51.466;6.806;2023-11-22T13:20:33;5.37;;;1.93;;
16579;SDS011;8402;51.466;6.806;2023-11-22T13:23:05;4.00;;;2.10;;
16579;SDS011;8402;51.466;6.806;2023-11-22T13:25:35;2.97;;;1.60;;
16579;SDS011;8402;51.466;6.806;2023-11-22T13:28:06;6.30;;;1.90;;
16579;SDS011;8402;51.466;6.806;2023-11-22T13:30:38;2.60;;;1.40;;
16579;SDS011;8402;51.466;6.806;2023-11-22T13:33:08;4.50;;;2.17;;
16579;SDS011;8402;51.466;6.806;2023-11-22T13:35:39;6.73;;;2.10;;
16579;SDS011;8402;51.466;6.806;2023-11-22T13:38:11;3.97;;;2.10;;
16579;SDS011;8402;51.466;6.806;2023-11-22T13:40:41;3.00;;;1.90;;
16579;SDS011;8402;51.466;6.806;2023-11-22T13:43:12;7.87;;;2.70;;
16579;SDS011;8402;51.466;6.806;2023-11-22T13:45:46;7.60;;;2.20;;
16579;SDS011;8402;51.466;6.806;2023-11-22T13:48:17;5.40;;;2.70;;
16579;SDS011;8402;51.466;6.806;2023-11-22T13:50:50;7.43;;;2.60;;
16579;SDS011;8402;51.466;6.806;2023-11-22T13:53:20;6.97;;;2.70;;
16579;SDS011;8402;51.466;6.806;2023-11-22T13:55:50;6.30;;;2.43;;
16579;SDS011;8402;51.466;6.806;2023-11-22T13:58:22;9.73;;;2.70;;
16579;SDS011;8402;51.466;6.806;2023-11-22T14:00:54;6.47;;;2.60;;
16579;SDS011;8402;51.466;6.806;2023-11-22T14:03:25;10.13;;;3.30;;
16579;SDS011;8402;51.466;6.806;2023-11-22T14:05:56;7.30;;;3.10;;
16579;SDS011;8402;51.466;6.806;2023-11-22T14:08:26;13.63;;;4.20;;
16579;SDS011;8402;51.466;6.806;2023-11-22T14:10:56;7.93;;;3.50;;
16579;SDS011;8402;51.466;6.806;2023-11-22T14:13:26;10.63;;;3.43;;
16579;SDS011;8402;51.466;6.806;2023-11-22T14:15:59;12.40;;;3.67;;
16579;SDS011;8402;51.466;6.806;2023-11-22T14:18:30;7.17;;;3.50;;
16579;SDS011;8402;51.466;6.806;2023-11-22T14:21:00;9.23;;;3.60;;
16579;SDS011;8402;51.466;6.806;2023-11-22T14:23:32;5.63;;;2.23;;
16579;SDS011;8402;51.466;6.806;2023-11-22T14:26:03;10.17;;;2.87;;
16579;SDS011;8402;51.466;6.806;2023-11-22T14:28:33;8.80;;;3.07;;
16579;SDS011;8402;51.466;6.806;2023-11-22T14:31:05;10.07;;;2.47;;
16579;SDS011;8402;51.466;6.806;2023-11-22T14:33:39;5.20;;;2.60;;
16579;SDS011;8402;51.466;6.806;2023-11-22T14:36:08;6.80;;;3.50;;
16579;SDS011;8402;51.466;6.806;2023-11-22T14:38:41;11.57;;;4.40;;
16579;SDS011;8402;51.466;6.806;2023-11-22T14:41:11;7.70;;;4.50;;
16579;SDS011;8402;51.466;6.806;2023-11-22T14:43:40;8.67;;;4.17;;
16579;SDS011;8402;51.466;6.806;2023-11-22T14:46:13;8.27;;;4.60;;
16579;SDS011;8402;51.466;6.806;2023-11-22T14:48:44;11.17;;;4.40;;
16579;SDS011;8402;51.466;6.806;2023-11-22T14:51:15;8.60;;;4.57;;
16579;SDS011;8402;51.466;6.806;2023-11-22T14:53:45;5.73;;;3.37;;
16579;SDS011;8402;51.466;6.806;2023-11-22T14:56:15;6.17;;;3.10;;
16579;SDS011;8402;51.466;6.806;2023-11-22T14:58:45;10.13;;;3.33;;
16579;SDS011;8402;51.466;6.806;2023-11-22T15:01:22;5.70;;;3.13;;
16579;SDS011;8402;51.466;6.806;2023-11-22T15:03:52;5.47;;;2.93;;
16579;SDS011;8402;51.466;6.806;2023-11-22T15:06:23;11.80;;;3.50;;
16579;SDS011;8402;51.466;6.806;2023-11-22T15:08:53;7.60;;;3.47;;
16579;SDS011;8402;51.466;6.806;2023-11-22T15:11:25;8.57;;;3.53;;
16579;SDS011;8402;51.466;6.806;2023-11-22T15:13:56;7.43;;;3.30;;